Time;durP1;ratioP1;P1;durP2;ratioP2;P2;SDS_P1;SDS_P2;PMS_P1;PMS_P2;Temp;Humidity;BMP_temperature;BMP_pressure;BME280_temperature;BME280_humidity;BME280_pressure;Samples;Min_cycle;Max_cycle;Signal;HPM_P1;HPM_P2
2023/12/01 08:28:45;;;;;;;;;41.50;39.75;;;;;;;;4960860;23;45602;-69
2023/12/01 08:31:10;;;;;;;;;57.50;43.00;;;;;;;;4928380;28;45353;-70
2023/12/01 08:33:35;;;;;;;;;21.00;13.00;;;;;;;;4941522;28;45205;-69
2023/12/01 08:36:01;;;;;;;;;60.75;44.25;;;;;;;;4941522;28;45161;-70
2023/12/01 08:38:26;;;;;;;;;58.00;43.25;;;;;;;;4941442;28;45693;-69
2023/12/01 08:40:51;;;;;;;;;56.75;45.00;;;;;;;;4939314;28;45284;-69
2023/12/01 08:43:16;;;;;;;;;55.25;44.25;;;;;;;;4923468;28;45196;-70
2023/12/01 08:45:41;;;;;;;;;61.00;43.75;;;;;;;;4941292;28;45651;-70
2023/12/01 08:48:07;;;;;;;;;55.75;43.50;;;;;;;;4941056;28;45180;-68
2023/12/01 08:50:33;;;;;;;;;62.50;46.75;;;;;;;;4923281;28;45291;-69
2023/12/01 08:52:58;;;;;;;;;54.00;43.00;;;;;;;;4944683;28;45603;-69
2023/12/01 08:55:23;;;;;;;;;56.75;41.00;;;;;;;;4940980;28;45184;-69
2023/12/01 08:57:48;;;;;;;;;50.25;38.50;;;;;;;;4939921;28;45115;-70
2023/12/01 09:00:18;;;;;;;;;66.50;50.75;;;;;;;;4940075;28;45255;-70
2023/12/01 09:02:44;;;;;;;;;57.75;42.00;;;;;;;;4931841;28;45241;-70
2023/12/01 09:05:10;;;;;;;;;62.00;47.25;;;;;;;;4940688;28;45375;-69
2023/12/01 09:07:35;;;;;;;;;55.75;43.25;;;;;;;;4940269;28;45679;-69
2023/12/01 09:10:00;;;;;;;;;58.25;45.00;;;;;;;;4940272;28;45137;-69
2023/12/01 09:12:25;;;;;;;;;62.75;45.00;;;;;;;;4940171;28;45581;-69
2023/12/01 09:14:50;;;;;;;;;50.50;40.75;;;;;;;;4940514;28;45431;-68
2023/12/01 09:17:16;;;;;;;;;60.75;41.75;;;;;;;;4938912;28;45239;-68
2023/12/01 09:19:41;;;;;;;;;51.25;42.00;;;;;;;;4940635;28;45223;-68
2023/12/01 09:22:06;;;;;;;;;46.25;38.00;;;;;;;;4940210;28;44902;-68
2023/12/01 09:24:31;;;;;;;;;58.25;44.25;;;;;;;;4940239;28;45545;-68
2023/12/01 09:26:56;;;;;;;;;54.75;41.00;;;;;;;;4939680;28;45339;-68
2023/12/01 09:29:22;;;;;;;;;56.50;44.50;;;;;;;;4940217;28;44642;-68
2023/12/01 09:31:47;;;;;;;;;48.00;39.75;;;;;;;;4940461;28;45269;-68
2023/12/01 09:34:12;;;;;;;;;52.00;39.25;;;;;;;;4940406;28;45200;-68
2023/12/01 09:36:38;;;;;;;;;50.25;42.25;;;;;;;;4949512;28;45378;-68
2023/12/01 09:39:03;;;;;;;;;56.00;44.25;;;;;;;;4923067;28;45248;-68
2023/12/01 09:41:29;;;;;;;;;54.50;41.00;;;;;;;;4940324;28;45363;-68
2023/12/01 09:43:55;;;;;;;;;55.50;41.75;;;;;;;;4940205;28;45346;-69
2023/12/01 09:46:21;;;;;;;;;53.50;40.50;;;;;;;;4922068;28;47255;-68
2023/12/01 09:48:46;;;;;;;;;55.50;42.50;;;;;;;;4940222;28;45235;-68
2023/12/01 09:51:11;;;;;;;;;51.25;40.00;;;;;;;;4939326;28;45326;-68
2023/12/01 09:53:37;;;;;;;;;55.25;42.25;;;;;;;;4951723;28;45377;-68
2023/12/01 09:56:05;;;;;;;;;56.50;43.00;;;;;;;;4945585;28;45378;-68
2023/12/01 09:58:31;;;;;;;;;58.00;43.25;;;;;;;;4943217;28;45291;-68
2023/12/01 10:00:56;;;;;;;;;57.00;40.75;;;;;;;;4942810;28;45143;-69
2023/12/01 10:03:21;;;;;;;;;47.50;37.25;;;;;;;;4944194;28;45213;-67
2023/12/01 10:05:47;;;;;;;;;58.50;42.50;;;;;;;;4944077;28;45391;-68
2023/12/01 10:08:12;;;;;;;;;51.25;39.25;;;;;;;;4924705;28;45391;-68
2023/12/01 10:10:38;;;;;;;;;55.50;38.25;;;;;;;;4943121;28;45335;-68
2023/12/01 10:13:04;;;;;;;;;59.00;43.25;;;;;;;;4942779;28;45499;-68
2023/12/01 10:15:30;;;;;;;;;59.75;43.25;;;;;;;;4942602;28;45429;-68
2023/12/01 10:18:06;;;;;;;;;55.50;42.25;;;;;;;;4938880;28;45470;-68
2023/12/01 10:20:32;;;;;;;;;57.00;40.25;;;;;;;;4941984;28;45889;-68
2023/12/01 10:22:57;;;;;;;;;60.00;44.25;;;;;;;;4943139;28;45474;-68
2023/12/01 10:25:22;;;;;;;;;52.50;36.25;;;;;;;;4941427;28;45654;-68
2023/12/01 10:27:55;;;;;;;;;51.25;37.25;;;;;;;;4941689;28;45414;-68
2023/12/01 10:30:20;;;;;;;;;31.50;21.00;;;;;;;;4942053;28;45348;-68
2023/12/01 10:32:47;;;;;;;;;56.50;43.25;;;;;;;;4943058;28;45458;-68
2023/12/01 10:35:12;;;;;;;;;43.00;38.50;;;;;;;;4944528;28;45668;-69
2023/12/01 10:37:38;;;;;;;;;46.50;39.25;;;;;;;;4945475;28;45323;-69
2023/12/01 10:40:06;;;;;;;;;43.50;36.25;;;;;;;;4950943;28;45608;-69
2023/12/01 10:42:34;;;;;;;;;51.75;40.00;;;;;;;;4953940;28;45326;-67
2023/12/01 10:45:00;;;;;;;;;58.00;42.75;;;;;;;;4942664;28;45380;-68
2023/12/01 10:47:25;;;;;;;;;61.75;41.00;;;;;;;;4942757;28;45282;-68
2023/12/01 10:49:51;;;;;;;;;56.25;44.00;;;;;;;;4942464;28;45268;-69
2023/12/01 10:52:16;;;;;;;;;58.00;41.00;;;;;;;;4942596;28;45516;-69
2023/12/01 10:54:43;;;;;;;;;50.00;40.50;;;;;;;;4942368;28;45348;-68
2023/12/01 10:57:20;;;;;;;;;51.00;40.00;;;;;;;;4941588;28;45408;-68
2023/12/01 10:59:51;;;;;;;;;48.25;37.25;;;;;;;;4954671;28;45285;-68
2023/12/01 11:02:16;;;;;;;;;45.25;40.50;;;;;;;;4941333;28;45330;-68
2023/12/01 11:04:45;;;;;;;;;45.00;36.50;;;;;;;;4940619;28;45325;-68
2023/12/01 11:07:29;;;;;;;;;43.25;33.00;;;;;;;;4942410;28;45295;-68
2023/12/01 11:10:11;;;;;;;;;52.00;41.25;;;;;;;;4942208;28;44750;-68
2023/12/01 11:12:49;;;;;;;;;53.75;42.75;;;;;;;;4942051;28;45487;-68
2023/12/01 11:15:18;;;;;;;;;35.00;35.00;;;;;;;;4942665;28;45284;-68
2023/12/01 11:17:43;;;;;;;;;56.00;41.75;;;;;;;;4941652;28;45297;-68
2023/12/01 11:20:27;;;;;;;;;60.00;46.50;;;;;;;;4942387;28;45368;-68
2023/12/01 11:23:01;;;;;;;;;59.25;43.75;;;;;;;;4941411;28;45749;-68
2023/12/01 11:25:43;;;;;;;;;52.75;40.25;;;;;;;;4942239;28;45271;-68
2023/12/01 11:28:26;;;;;;;;;47.00;38.75;;;;;;;;4924050;28;45396;-68
2023/12/01 11:31:07;;;;;;;;;56.75;41.75;;;;;;;;4942041;28;45363;-68
2023/12/01 11:33:32;;;;;;;;;49.50;38.00;;;;;;;;4941587;28;45282;-69
2023/12/01 11:36:16;;;;;;;;;56.00;43.00;;;;;;;;4929701;28;46689;-68
2023/12/01 11:39:00;;;;;;;;;65.00;42.25;;;;;;;;4924272;28;45244;-68
2023/12/01 11:41:28;;;;;;;;;54.25;41.50;;;;;;;;4941824;28;45213;-69
2023/12/01 11:44:04;;;;;;;;;55.00;43.50;;;;;;;;4941574;28;46083;-69
2023/12/01 11:46:30;;;;;;;;;51.25;38.50;;;;;;;;4941264;28;45512;-68
2023/12/01 11:48:55;;;;;;;;;51.00;38.75;;;;;;;;4941346;28;45311;-69
2023/12/01 11:51:22;;;;;;;;;60.00;44.00;;;;;;;;4942159;28;45536;-69
2023/12/01 11:53:57;;;;;;;;;52.75;41.50;;;;;;;;4941747;28;45401;-68
2023/12/01 11:56:25;;;;;;;;;60.00;47.25;;;;;;;;4941504;28;45737;-68
2023/12/01 11:58:51;;;;;;;;;62.50;44.00;;;;;;;;4941415;28;45314;-68
2023/12/01 12:01:16;;;;;;;;;59.75;42.75;;;;;;;;4941978;28;44716;-69
2023/12/01 12:03:41;;;;;;;;;59.75;49.00;;;;;;;;4941563;28;45416;-69
2023/12/01 12:06:07;;;;;;;;;66.50;50.25;;;;;;;;4941938;28;45685;-68
2023/12/01 12:08:32;;;;;;;;;57.75;43.75;;;;;;;;4942214;28;45201;-68
2023/12/01 12:10:59;;;;;;;;;34.75;23.50;;;;;;;;4942477;28;45560;-69
2023/12/01 12:13:24;;;;;;;;;53.25;42.25;;;;;;;;4941905;28;45352;-69
2023/12/01 12:15:49;;;;;;;;;49.75;38.75;;;;;;;;4942234;28;45260;-69
2023/12/01 12:18:15;;;;;;;;;37.75;33.75;;;;;;;;4925034;28;45280;-69
2023/12/01 12:20:40;;;;;;;;;49.75;37.50;;;;;;;;4942365;28;45265;-68
2023/12/01 12:23:05;;;;;;;;;46.00;31.75;;;;;;;;4941863;28;45463;-69
2023/12/01 12:25:34;;;;;;;;;58.50;38.00;;;;;;;;4924678;28;46050;-69
2023/12/01 12:28:07;;;;;;;;;55.25;44.50;;;;;;;;4940215;28;44733;-68
2023/12/01 12:30:33;;;;;;;;;52.25;40.50;;;;;;;;4941091;28;45270;-69
2023/12/01 12:32:59;;;;;;;;;57.00;39.75;;;;;;;;4923367;28;46317;-69
2023/12/01 12:35:24;;;;;;;;;57.25;43.00;;;;;;;;4944492;28;45631;-68
2023/12/01 12:37:49;;;;;;;;;43.75;37.00;;;;;;;;4942228;28;45230;-68
2023/12/01 12:40:14;;;;;;;;;47.75;40.75;;;;;;;;4938199;28;45161;-68
2023/12/01 12:42:41;;;;;;;;;48.00;39.25;;;;;;;;4941355;28;45187;-69
2023/12/01 12:45:06;;;;;;;;;43.50;29.50;;;;;;;;4941870;28;44949;-69
2023/12/01 12:47:32;;;;;;;;;43.50;34.00;;;;;;;;4941399;28;45383;-68
2023/12/01 12:49:57;;;;;;;;;56.25;39.50;;;;;;;;4941313;28;45471;-68
2023/12/01 12:52:22;;;;;;;;;50.25;37.00;;;;;;;;4941212;28;45501;-68
2023/12/01 12:54:47;;;;;;;;;43.50;36.50;;;;;;;;4941626;28;45326;-68
2023/12/01 12:57:13;;;;;;;;;54.00;36.50;;;;;;;;4940881;28;45194;-68
2023/12/01 12:59:38;;;;;;;;;52.00;37.75;;;;;;;;4941563;28;44775;-68
2023/12/01 13:02:04;;;;;;;;;56.50;38.75;;;;;;;;4941271;28;45232;-68
2023/12/01 13:04:29;;;;;;;;;33.00;25.25;;;;;;;;4940254;28;45422;-69
2023/12/01 13:06:56;;;;;;;;;49.00;35.25;;;;;;;;4941361;28;45246;-68
2023/12/01 13:09:22;;;;;;;;;39.75;33.75;;;;;;;;4941621;28;45443;-69
2023/12/01 13:11:47;;;;;;;;;44.50;31.75;;;;;;;;4940813;28;45381;-69
2023/12/01 13:14:13;;;;;;;;;36.25;26.75;;;;;;;;4941420;28;45400;-69
2023/12/01 13:16:39;;;;;;;;;33.75;25.75;;;;;;;;4941238;28;45273;-69
2023/12/01 13:19:06;;;;;;;;;43.75;31.25;;;;;;;;4941018;28;45248;-68
2023/12/01 13:21:35;;;;;;;;;49.25;36.50;;;;;;;;4923406;28;46219;-68
2023/12/01 13:24:00;;;;;;;;;38.25;33.75;;;;;;;;4941123;28;45343;-69
2023/12/01 13:26:25;;;;;;;;;69.75;50.50;;;;;;;;4940644;28;45399;-68
2023/12/01 13:28:50;;;;;;;;;43.50;36.50;;;;;;;;4940721;28;45442;-69
2023/12/01 13:31:16;;;;;;;;;39.50;31.00;;;;;;;;4940855;28;45255;-68
2023/12/01 13:33:41;;;;;;;;;37.75;33.25;;;;;;;;4940930;28;46433;-69
2023/12/01 13:36:09;;;;;;;;;40.50;33.50;;;;;;;;4946078;28;44776;-69
2023/12/01 13:38:34;;;;;;;;;39.25;34.25;;;;;;;;4941151;28;45287;-68
2023/12/01 13:41:00;;;;;;;;;40.50;33.25;;;;;;;;4940728;28;45201;-68
2023/12/01 13:43:25;;;;;;;;;38.50;35.25;;;;;;;;4939591;28;45364;-69
2023/12/01 13:45:50;;;;;;;;;43.25;34.75;;;;;;;;4940835;28;45338;-68
2023/12/01 13:48:16;;;;;;;;;40.25;30.50;;;;;;;;4941033;28;45475;-69
2023/12/01 13:50:41;;;;;;;;;63.75;49.75;;;;;;;;4940577;28;45483;-69
2023/12/01 13:53:06;;;;;;;;;51.00;36.75;;;;;;;;4940655;28;46275;-69
2023/12/01 13:55:31;;;;;;;;;53.00;40.25;;;;;;;;4940387;28;45543;-69
2023/12/01 13:57:57;;;;;;;;;54.75;39.00;;;;;;;;4940550;28;45264;-69
2023/12/01 14:00:22;;;;;;;;;55.75;42.25;;;;;;;;4940351;28;45533;-68
2023/12/01 14:02:48;;;;;;;;;45.00;37.00;;;;;;;;4940471;28;45397;-68
2023/12/01 14:05:14;;;;;;;;;51.25;36.75;;;;;;;;4923140;28;45274;-68
2023/12/01 14:07:39;;;;;;;;;50.25;38.25;;;;;;;;4940683;28;45357;-68
2023/12/01 14:10:05;;;;;;;;;46.25;35.75;;;;;;;;4940332;28;45452;-68
2023/12/01 14:12:30;;;;;;;;;45.00;35.75;;;;;;;;4940166;28;45311;-69
2023/12/01 14:14:57;;;;;;;;;49.75;41.25;;;;;;;;4940329;28;45244;-69
2023/12/01 14:17:22;;;;;;;;;53.00;40.50;;;;;;;;4940685;28;44774;-68
2023/12/01 14:19:47;;;;;;;;;47.00;39.75;;;;;;;;4940196;28;45306;-69
2023/12/01 14:22:13;;;;;;;;;44.25;35.25;;;;;;;;4940628;28;46354;-68
2023/12/01 14:24:38;;;;;;;;;53.00;42.50;;;;;;;;4939997;28;45359;-70
2023/12/01 14:27:03;;;;;;;;;59.25;47.00;;;;;;;;4921757;28;45398;-70
2023/12/01 14:29:29;;;;;;;;;78.00;56.67;;;;;;;;4939194;28;45352;-69
2023/12/01 14:31:54;;;;;;;;;55.50;41.25;;;;;;;;4938926;28;46541;-68
2023/12/01 14:34:19;;;;;;;;;67.00;52.50;;;;;;;;4922062;28;45544;-68
2023/12/01 14:36:45;;;;;;;;;48.50;38.00;;;;;;;;4941780;28;45423;-69
2023/12/01 14:39:10;;;;;;;;;66.00;51.25;;;;;;;;4922122;28;45662;-69
2023/12/01 14:41:36;;;;;;;;;75.33;57.67;;;;;;;;4942621;28;45391;-69
2023/12/01 14:44:01;;;;;;;;;45.25;34.75;;;;;;;;4925441;28;45627;-70
2023/12/01 14:46:27;;;;;;;;;46.25;37.50;;;;;;;;4943207;28;45426;-69
2023/12/01 14:48:52;;;;;;;;;46.25;38.50;;;;;;;;4943023;28;45363;-69
2023/12/01 14:51:17;;;;;;;;;46.75;34.75;;;;;;;;4943181;28;45457;-69
2023/12/01 14:53:43;;;;;;;;;44.25;34.00;;;;;;;;4943077;28;45236;-69
2023/12/01 14:56:08;;;;;;;;;61.00;45.00;;;;;;;;4942948;28;45136;-69
2023/12/01 14:58:37;;;;;;;;;41.75;36.75;;;;;;;;4942179;28;45553;-69
2023/12/01 15:01:03;;;;;;;;;50.75;36.75;;;;;;;;4924929;28;47122;-69
2023/12/01 15:03:28;;;;;;;;;48.50;34.00;;;;;;;;4942431;28;45315;-69
2023/12/01 15:05:53;;;;;;;;;45.00;36.75;;;;;;;;4943022;28;45245;-69
2023/12/01 15:08:18;;;;;;;;;46.25;37.00;;;;;;;;4942450;28;45364;-69
2023/12/01 15:10:44;;;;;;;;;44.25;29.50;;;;;;;;4925044;28;47742;-69
2023/12/01 15:13:09;;;;;;;;;38.25;32.25;;;;;;;;4942279;28;45291;-69
2023/12/01 15:15:34;;;;;;;;;41.25;31.50;;;;;;;;4942647;28;45263;-69
2023/12/01 15:17:59;;;;;;;;;48.25;31.50;;;;;;;;4942444;28;45268;-69
2023/12/01 15:20:24;;;;;;;;;46.75;31.50;;;;;;;;4942949;28;45488;-69
2023/12/01 15:22:50;;;;;;;;;43.75;32.50;;;;;;;;4943019;28;45192;-69
2023/12/01 15:25:15;;;;;;;;;49.75;34.75;;;;;;;;4943162;28;45211;-69
2023/12/01 15:27:41;;;;;;;;;43.00;32.00;;;;;;;;4942027;28;45237;-69
2023/12/01 15:30:06;;;;;;;;;34.50;30.75;;;;;;;;4942774;28;45202;-69
2023/12/01 15:32:32;;;;;;;;;38.00;31.00;;;;;;;;4942870;28;45488;-69
2023/12/01 15:34:57;;;;;;;;;41.25;32.50;;;;;;;;4943962;28;44721;-69
2023/12/01 15:37:22;;;;;;;;;38.25;31.00;;;;;;;;4947460;28;45489;-69
2023/12/01 15:39:48;;;;;;;;;32.50;29.75;;;;;;;;4942033;28;46032;-69
2023/12/01 15:42:13;;;;;;;;;49.25;35.25;;;;;;;;4941592;28;45653;-69
2023/12/01 15:44:42;;;;;;;;;34.00;28.50;;;;;;;;4942384;28;45344;-69
2023/12/01 15:47:07;;;;;;;;;45.75;34.00;;;;;;;;4941822;28;45450;-69
2023/12/01 15:49:32;;;;;;;;;41.00;34.75;;;;;;;;4942109;28;45515;-69
2023/12/01 15:51:57;;;;;;;;;35.00;29.25;;;;;;;;4942119;28;45384;-69
2023/12/01 15:54:22;;;;;;;;;37.50;31.75;;;;;;;;4942465;28;45480;-70
2023/12/01 15:56:48;;;;;;;;;36.00;28.50;;;;;;;;4942097;28;45553;-69
2023/12/01 15:59:13;;;;;;;;;40.00;33.50;;;;;;;;4942095;28;45465;-69
2023/12/01 16:01:38;;;;;;;;;40.50;31.50;;;;;;;;4941980;28;45287;-69
2023/12/01 16:04:04;;;;;;;;;38.50;33.75;;;;;;;;4942411;28;45290;-69
2023/12/01 16:06:29;;;;;;;;;37.50;32.50;;;;;;;;4924313;28;45575;-70
2023/12/01 16:08:54;;;;;;;;;37.50;30.75;;;;;;;;4942302;28;45348;-69
2023/12/01 16:11:20;;;;;;;;;34.75;26.00;;;;;;;;4942053;28;45408;-69
2023/12/01 16:13:45;;;;;;;;;41.50;30.50;;;;;;;;4942414;28;45336;-69
2023/12/01 16:16:10;;;;;;;;;37.25;28.00;;;;;;;;4942645;28;45156;-69
2023/12/01 16:18:35;;;;;;;;;31.50;26.00;;;;;;;;4942172;28;45402;-68
2023/12/01 16:21:01;;;;;;;;;46.50;36.75;;;;;;;;4941929;28;45241;-69
2023/12/01 16:23:26;;;;;;;;;30.25;29.75;;;;;;;;4942113;28;45260;-68
2023/12/01 16:25:51;;;;;;;;;44.00;32.25;;;;;;;;4924533;28;45474;-69
2023/12/01 16:28:16;;;;;;;;;38.00;27.00;;;;;;;;4923917;28;46068;-69
2023/12/01 16:30:42;;;;;;;;;40.25;27.00;;;;;;;;4941711;28;45176;-69
2023/12/01 16:33:07;;;;;;;;;38.00;33.75;;;;;;;;4942144;28;44699;-68
2023/12/01 16:35:33;;;;;;;;;32.50;30.25;;;;;;;;4947002;28;45509;-68
2023/12/01 16:37:59;;;;;;;;;39.75;32.50;;;;;;;;4911144;28;45281;-68
2023/12/01 16:40:24;;;;;;;;;37.00;30.25;;;;;;;;4941377;28;45337;-69
2023/12/01 16:42:49;;;;;;;;;49.25;32.25;;;;;;;;4941304;28;45256;-68
2023/12/01 16:45:15;;;;;;;;;38.25;34.00;;;;;;;;4941484;28;45179;-67
2023/12/01 16:47:40;;;;;;;;;56.75;36.25;;;;;;;;4941216;28;46006;-68
2023/12/01 16:50:05;;;;;;;;;47.75;34.75;;;;;;;;4924234;28;45670;-67
2023/12/01 16:52:31;;;;;;;;;51.50;39.50;;;;;;;;4941562;28;45332;-67
2023/12/01 16:54:57;;;;;;;;;47.25;33.25;;;;;;;;4941419;28;45297;-67
2023/12/01 16:57:22;;;;;;;;;40.25;32.75;;;;;;;;4940260;28;45470;-68
2023/12/01 16:59:47;;;;;;;;;37.25;30.50;;;;;;;;4923342;28;45433;-68
2023/12/01 17:02:12;;;;;;;;;48.75;34.50;;;;;;;;4940305;28;45290;-67
2023/12/01 17:04:38;;;;;;;;;43.25;34.75;;;;;;;;4940930;28;45252;-68
2023/12/01 17:07:03;;;;;;;;;43.75;38.00;;;;;;;;4939828;28;46186;-68
2023/12/01 17:09:28;;;;;;;;;40.75;34.25;;;;;;;;4939501;28;45359;-68
2023/12/01 17:11:53;;;;;;;;;48.75;37.50;;;;;;;;4944679;28;45481;-68
2023/12/01 17:14:19;;;;;;;;;48.25;34.50;;;;;;;;4929989;28;45752;-69
2023/12/01 17:16:44;;;;;;;;;39.00;33.00;;;;;;;;4939866;28;45272;-69
2023/12/01 17:19:09;;;;;;;;;48.50;34.50;;;;;;;;4939933;28;45405;-69
2023/12/01 17:21:34;;;;;;;;;42.00;34.75;;;;;;;;4940066;28;45371;-69
2023/12/01 17:23:59;;;;;;;;;40.00;28.75;;;;;;;;4939802;28;45570;-69
2023/12/01 17:26:25;;;;;;;;;40.50;32.25;;;;;;;;4939009;28;46155;-69
2023/12/01 17:28:50;;;;;;;;;39.00;31.25;;;;;;;;4940173;28;45268;-68
2023/12/01 17:31:15;;;;;;;;;32.25;29.25;;;;;;;;4922899;28;45240;-68
2023/12/01 17:33:40;;;;;;;;;38.25;29.50;;;;;;;;4939756;28;45580;-68
2023/12/01 17:36:06;;;;;;;;;36.50;30.50;;;;;;;;4946050;28;45620;-69
2023/12/01 17:38:31;;;;;;;;;43.00;35.00;;;;;;;;4939930;28;45342;-69
2023/12/01 17:40:56;;;;;;;;;42.50;30.00;;;;;;;;4940037;28;45207;-68
2023/12/01 17:43:21;;;;;;;;;43.75;31.25;;;;;;;;4939315;28;45449;-68
2023/12/01 17:45:47;;;;;;;;;36.25;34.25;;;;;;;;4939940;28;45474;-68
2023/12/01 17:48:13;;;;;;;;;38.00;34.50;;;;;;;;4922250;28;45248;-69
2023/12/01 17:50:38;;;;;;;;;45.75;37.25;;;;;;;;4940112;28;45152;-68
2023/12/01 17:53:03;;;;;;;;;40.75;33.25;;;;;;;;4939238;28;45261;-68
2023/12/01 17:55:28;;;;;;;;;46.50;38.75;;;;;;;;4939812;28;45105;-68
2023/12/01 17:57:53;;;;;;;;;53.50;43.25;;;;;;;;4940053;28;45388;-68
2023/12/01 18:00:19;;;;;;;;;61.67;46.33;;;;;;;;4939922;28;45364;-68
2023/12/01 18:02:45;;;;;;;;;55.25;43.25;;;;;;;;4939248;28;45236;-69
2023/12/01 18:05:13;;;;;;;;;88.33;67.33;;;;;;;;4922590;28;47044;-69
2023/12/01 18:07:38;;;;;;;;;55.50;30.75;;;;;;;;4940273;28;45373;-68
2023/12/01 18:10:03;;;;;;;;;76.67;57.00;;;;;;;;4940862;28;45291;-68
2023/12/01 18:12:29;;;;;;;;;38.00;33.75;;;;;;;;5337315;23;46467;-74
2023/12/01 18:14:54;;;;;;;;;49.75;38.00;;;;;;;;4922865;28;45794;-74
2023/12/01 18:17:19;;;;;;;;;71.00;52.33;;;;;;;;4917409;28;45497;-73
2023/12/01 18:19:45;;;;;;;;;74.00;54.67;;;;;;;;4916504;28;45249;-73
2023/12/01 18:22:10;;;;;;;;;49.00;42.00;;;;;;;;4923586;28;45887;-72
2023/12/01 18:24:35;;;;;;;;;88.00;65.33;;;;;;;;4932699;28;45439;-72
2023/12/01 18:27:00;;;;;;;;;60.50;44.75;;;;;;;;4928377;28;45456;-73
2023/12/01 18:29:25;;;;;;;;;427.75;363.00;;;;;;;;4924819;28;45347;-74
2023/12/01 18:31:51;;;;;;;;;52.67;46.33;;;;;;;;4921764;28;45544;-74
2023/12/01 18:34:16;;;;;;;;;108.00;93.33;;;;;;;;4917526;28;45293;-74
2023/12/01 18:36:41;;;;;;;;;45.75;39.00;;;;;;;;4920496;28;45434;-73
2023/12/01 18:39:06;;;;;;;;;41.75;36.00;;;;;;;;4921261;28;45310;-73
2023/12/01 18:41:32;;;;;;;;;38.50;33.25;;;;;;;;4923670;28;45601;-73
2023/12/01 18:43:57;;;;;;;;;35.25;29.75;;;;;;;;4911901;28;45461;-74
2023/12/01 18:46:22;;;;;;;;;38.25;32.00;;;;;;;;4925105;28;45232;-74
2023/12/01 18:48:47;;;;;;;;;47.50;36.75;;;;;;;;4907662;28;45446;-74
2023/12/01 18:51:12;;;;;;;;;64.00;52.00;;;;;;;;4937068;28;45300;-74
2023/12/01 18:53:38;;;;;;;;;38.75;34.75;;;;;;;;4925575;28;45458;-74
2023/12/01 18:56:05;;;;;;;;;50.75;36.25;;;;;;;;4937408;28;45375;-73
2023/12/01 18:58:31;;;;;;;;;33.75;26.50;;;;;;;;4921171;28;45354;-74
2023/12/01 19:00:56;;;;;;;;;38.00;34.50;;;;;;;;4937282;28;45388;-74
2023/12/01 19:03:21;;;;;;;;;52.50;40.00;;;;;;;;4921490;28;45658;-73
2023/12/01 19:05:46;;;;;;;;;42.25;37.50;;;;;;;;4931386;28;45161;-75
2023/12/01 19:08:11;;;;;;;;;40.00;32.50;;;;;;;;4919309;28;45153;-73
2023/12/01 19:10:37;;;;;;;;;30.75;24.75;;;;;;;;4931544;28;45202;-73
2023/12/01 19:13:02;;;;;;;;;40.75;31.00;;;;;;;;4915164;28;45437;-73
2023/12/01 19:15:27;;;;;;;;;35.50;28.00;;;;;;;;4925130;28;44869;-73
2023/12/01 19:17:52;;;;;;;;;37.50;28.50;;;;;;;;4915786;28;45209;-75
2023/12/01 19:20:17;;;;;;;;;43.75;29.50;;;;;;;;4933574;28;45422;-75
2023/12/01 19:22:43;;;;;;;;;31.25;25.75;;;;;;;;4917632;28;45649;-75
2023/12/01 19:25:08;;;;;;;;;36.25;28.00;;;;;;;;4934493;28;45453;-75
2023/12/01 19:27:33;;;;;;;;;32.00;29.25;;;;;;;;4906726;28;45371;-74
2023/12/01 19:29:59;;;;;;;;;33.25;29.75;;;;;;;;4934834;28;46882;-75
2023/12/01 19:32:24;;;;;;;;;29.50;27.50;;;;;;;;4924321;28;45379;-74
2023/12/01 19:34:49;;;;;;;;;45.75;34.25;;;;;;;;4937386;28;45500;-74
2023/12/01 19:37:14;;;;;;;;;41.50;31.50;;;;;;;;4922492;28;45316;-74
2023/12/01 19:39:39;;;;;;;;;36.75;29.50;;;;;;;;4919396;28;45862;-75
2023/12/01 19:42:05;;;;;;;;;45.25;33.25;;;;;;;;4923892;28;45356;-75
2023/12/01 19:44:30;;;;;;;;;39.50;32.25;;;;;;;;4927165;28;45389;-75
2023/12/01 19:46:55;;;;;;;;;36.50;26.50;;;;;;;;4926820;28;45454;-76
2023/12/01 19:49:21;;;;;;;;;39.25;33.00;;;;;;;;4923732;28;45434;-75
2023/12/01 19:51:46;;;;;;;;;38.00;33.25;;;;;;;;4925186;28;45296;-75
2023/12/01 19:54:11;;;;;;;;;39.00;29.00;;;;;;;;4931496;28;45294;-75
2023/12/01 19:56:37;;;;;;;;;42.50;37.75;;;;;;;;4936184;28;45271;-75
2023/12/01 19:59:02;;;;;;;;;45.75;33.00;;;;;;;;4934608;28;45582;-74
2023/12/01 20:01:28;;;;;;;;;35.25;32.50;;;;;;;;4928511;28;48463;-75
2023/12/01 20:03:53;;;;;;;;;47.00;33.00;;;;;;;;4917202;28;45387;-73
2023/12/01 20:06:18;;;;;;;;;52.50;36.25;;;;;;;;4906956;28;45548;-75
2023/12/01 20:08:43;;;;;;;;;39.25;37.50;;;;;;;;4914779;28;45611;-74
2023/12/01 20:11:08;;;;;;;;;37.25;32.25;;;;;;;;4924854;28;45622;-74
2023/12/01 20:13:34;;;;;;;;;41.00;31.25;;;;;;;;4910695;28;44765;-74
2023/12/01 20:15:59;;;;;;;;;53.50;39.50;;;;;;;;4915635;28;45329;-73
2023/12/01 20:18:24;;;;;;;;;43.50;31.00;;;;;;;;4920337;28;45376;-74
2023/12/01 20:20:50;;;;;;;;;39.25;34.00;;;;;;;;4913156;28;47192;-73
2023/12/01 20:23:15;;;;;;;;;40.25;30.50;;;;;;;;4924439;28;45201;-73
2023/12/01 20:25:40;;;;;;;;;51.25;39.50;;;;;;;;4913522;28;45302;-75
2023/12/01 20:28:05;;;;;;;;;55.00;42.33;;;;;;;;4922633;28;45434;-72
2023/12/01 20:30:31;;;;;;;;;64.67;47.00;;;;;;;;4931583;28;45367;-73
2023/12/01 20:32:56;;;;;;;;;69.33;54.33;;;;;;;;4925787;28;45365;-73
2023/12/01 20:35:21;;;;;;;;;61.00;48.33;;;;;;;;4933009;28;45386;-72
2023/12/01 20:37:47;;;;;;;;;73.33;56.00;;;;;;;;4923184;28;45495;-72
2023/12/01 20:40:13;;;;;;;;;122.50;106.50;;;;;;;;4929034;28;45288;-74
2023/12/01 20:42:38;;;;;;;;;64.33;47.00;;;;;;;;4921139;28;45287;-76
2023/12/01 20:45:03;;;;;;;;;48.67;41.33;;;;;;;;4926740;28;45450;-73
2023/12/01 20:47:29;;;;;;;;;66.67;51.00;;;;;;;;4924107;28;45194;-73
2023/12/01 20:49:54;;;;;;;;;82.00;63.33;;;;;;;;4927535;28;45281;-73
2023/12/01 20:52:20;;;;;;;;;64.67;51.00;;;;;;;;4927582;28;45459;-74
2023/12/01 20:54:45;;;;;;;;;220.25;179.00;;;;;;;;4928149;28;45349;-73
2023/12/01 20:57:10;;;;;;;;;50.67;38.33;;;;;;;;4928740;28;45684;-73
2023/12/01 20:59:36;;;;;;;;;57.67;43.33;;;;;;;;4931065;28;45364;-72
2023/12/01 21:02:02;;;;;;;;;74.33;55.67;;;;;;;;4930271;28;45811;-72
2023/12/01 21:04:28;;;;;;;;;51.67;42.67;;;;;;;;4919075;28;45438;-75
2023/12/01 21:06:53;;;;;;;;;50.33;38.67;;;;;;;;4927716;28;45343;-75
2023/12/01 21:09:21;;;;;;;;;57.33;42.00;;;;;;;;4921425;28;45493;-75
2023/12/01 21:11:46;;;;;;;;;148.50;127.25;;;;;;;;4928383;28;45340;-72
2023/12/01 21:14:11;;;;;;;;;55.00;43.33;;;;;;;;4923250;28;46171;-72
2023/12/01 21:16:38;;;;;;;;;65.00;51.67;;;;;;;;4928975;28;45389;-75
2023/12/01 21:19:04;;;;;;;;;65.33;51.67;;;;;;;;4921080;28;45567;-75
2023/12/01 21:21:29;;;;;;;;;61.67;50.00;;;;;;;;4929624;28;45481;-76
2023/12/01 21:23:55;;;;;;;;;46.25;36.25;;;;;;;;4918760;28;46328;-74
2023/12/01 21:26:21;;;;;;;;;60.67;46.00;;;;;;;;4931054;28;45254;-72
2023/12/01 21:28:47;;;;;;;;;77.00;58.67;;;;;;;;4919761;28;47183;-72
2023/12/01 21:31:12;;;;;;;;;53.00;44.00;;;;;;;;4932023;28;44716;-74
2023/12/01 21:33:37;;;;;;;;;60.33;44.33;;;;;;;;4923463;28;45493;-72
2023/12/01 21:36:06;;;;;;;;;65.00;45.67;;;;;;;;4932740;28;45315;-72
2023/12/01 21:38:31;;;;;;;;;60.00;47.67;;;;;;;;4926704;28;45647;-74
2023/12/01 21:40:56;;;;;;;;;54.67;40.33;;;;;;;;4931082;28;45181;-75
2023/12/01 21:43:21;;;;;;;;;52.67;41.67;;;;;;;;4916081;28;45249;-73
2023/12/01 21:45:47;;;;;;;;;59.33;42.67;;;;;;;;4914662;28;45395;-75
2023/12/01 21:48:12;;;;;;;;;57.00;41.00;;;;;;;;4918303;28;45617;-75
2023/12/01 21:50:37;;;;;;;;;47.25;37.75;;;;;;;;4932319;28;45378;-75
2023/12/01 21:53:02;;;;;;;;;48.33;42.00;;;;;;;;4925487;28;45216;-75
2023/12/01 21:55:27;;;;;;;;;55.33;41.67;;;;;;;;4926012;28;46795;-75
2023/12/01 21:57:55;;;;;;;;;54.33;41.67;;;;;;;;4929458;28;45227;-75
2023/12/01 22:00:20;;;;;;;;;53.67;41.33;;;;;;;;4933975;28;45498;-73
